Meteo Giornale » Osservazioni meteo Brasile » Guarulhos Civ-Mil

ore: 23:00 - Osservazioni Meteo Guarulhos Civ-Mil
Lat. 23° 26' S Lon. 46° 28' W Alt. 750 metri s.l.m.

poco_nuvoloso America/Sao_Paulo

19 °C

Poco Nuvoloso

Temp. 24 Ore

17 °C

32 °C

Nord

3.7 Km/h

Dew point 17 °C

Umidità 88 %

Visibilità  7 Km

Il sole sorge alle ore 05:56

Il sole tramonta alle ore 18:02

Data e Ora Cielo e Fenomeni T °C DP °C Um. % Pres. hPa Vis. km Vento km/h
Oggi h: 23:00 poco_nuvoloso Poco Nuvoloso 19 17 88 1019 7 N 3.7
Oggi h: 22:00 poco_nuvoloso Poco Nuvoloso 19 17 88 1020 7 N 5.5
Oggi h: 21:00 sereno Sereno 20 18 88 1019 8 N 3.7
Oggi h: 20:00 sereno Sereno 21 18 82 1018 9 N 5.5
Oggi h: 19:00 sereno Sereno 23 19 78 1018 10 N 5.5
Oggi h: 18:00 sereno Sereno 26 19 65 1017 9 S/SE 11.1
Oggi h: 16:00 sereno Sereno 31 16 40 1016 10 S 13
Oggi h: 15:00 sereno Sereno 32 18 43 1016 10 S/SO 11.1
Oggi h: 14:00 sereno Sereno 31 16 40 1016 10 SE 7.4
Oggi h: 13:00 sereno Sereno 31 17 43 1017 10 SE 11.1
Oggi h: 11:00 sereno Sereno 28 18 54 1019 10 E/NE 14.8
Oggi h: 10:00 sereno Sereno 26 18 61 1019 10 E 14.8
Oggi h: 09:00 sereno Sereno 23 18 73 1019 10 E/NE 18.5
Oggi h: 08:00 sereno Sereno 21 18 82 1019 8 E 13
Oggi h: 07:00 sereno Sereno 19 17 88 1018 3 E 9.3
Oggi h: 06:00 sereno Sereno 17 16 93 1017 7 E 9.3
Oggi h: 05:00 sereno Sereno 18 16 88 1016 6 E/NE 9.3
Oggi h: 04:00 poco_nuvoloso Poco Nuvoloso 18 17 93 1016 6 N 5.5
Oggi h: 03:00 foschia Foschia 17 16 93 1016 5 N 1.8
Oggi h: 02:00 sereno Sereno 17 16 93 1016 6 N 1.8
Oggi h: 01:00 poco_nuvoloso Poco Nuvoloso 17 16 93 1017 6 N 1.8
Oggi h: 00:00 sereno Sereno 18 17 93 1018 8 O 20.3